HAAB/ADD METAR and TAF weather

Enter ICAO airport designator
Station Type Date Time Source
HAAB METAR 2018/04/21 09:00 UTC NOAA

HAAB 210900Z 23006KT 9999 BKN025 BKN080 18/13 Q1026


Station Type Date Time Source
HAAB Decoded METAR 2018/04/21 09:00 UTC NOAA

Addis Ababa, Ethiopia (HAAB) 08-59N 038-48E 2324M
Apr 21, 2018 - 05:00 AM EDT / 2018.04.21 0900 UTC
Wind: from the SW (230 degrees) at 7 MPH (6 KT):0
Visibility: greater than 7 mile(s):0
Sky conditions: mostly cloudy
Temperature: 64 F (18 C)
Dew Point: 55 F (13 C)
Relative Humidity: 72%
Pressure (altimeter): 30.30 in. Hg (1026 hPa)
ob: HAAB 210900Z 23006KT 9999 BKN025 BKN080 18/13 Q1026
cycle: 9

Station Type Date Time Source
HAAB TAF 2018/04/21 12:42 UTC NOAA

TAF TAF HAAB 210930Z 2112/2218 12005KT 6000 SHRA BKN027 SCT080
BECMG 2122/2206 36005KT 9999


Example: see airport list